sensor_id;sensor_type;location;lat;lon;timestamp;P1;durP1;ratioP1;P2;durP2;ratioP2
16246;SDS011;8231;50.866;7.944;2022-07-06T00:01:38;5.43;;;2.63;;
16246;SDS011;8231;50.866;7.944;2022-07-06T00:04:06;8.35;;;2.58;;
16246;SDS011;8231;50.866;7.944;2022-07-06T00:06:35;2.65;;;2.00;;
16246;SDS011;8231;50.866;7.944;2022-07-06T00:09:04;3.15;;;2.00;;
16246;SDS011;8231;50.866;7.944;2022-07-06T00:11:33;4.20;;;2.35;;
16246;SDS011;8231;50.866;7.944;2022-07-06T00:14:01;3.65;;;2.35;;
16246;SDS011;8231;50.866;7.944;2022-07-06T00:16:29;3.20;;;2.15;;
16246;SDS011;8231;50.866;7.944;2022-07-06T00:18:58;3.55;;;2.20;;
16246;SDS011;8231;50.866;7.944;2022-07-06T00:21:26;2.08;;;1.95;;
16246;SDS011;8231;50.866;7.944;2022-07-06T00:23:54;7.20;;;2.22;;
16246;SDS011;8231;50.866;7.944;2022-07-06T00:26:24;2.28;;;1.98;;
16246;SDS011;8231;50.866;7.944;2022-07-06T00:28:52;3.65;;;2.72;;
16246;SDS011;8231;50.866;7.944;2022-07-06T00:31:20;2.22;;;2.03;;
16246;SDS011;8231;50.866;7.944;2022-07-06T00:33:48;3.78;;;2.10;;
16246;SDS011;8231;50.866;7.944;2022-07-06T00:36:16;2.83;;;2.08;;
16246;SDS011;8231;50.866;7.944;2022-07-06T00:38:44;2.15;;;2.03;;
16246;SDS011;8231;50.866;7.944;2022-07-06T00:41:13;3.97;;;2.03;;
16246;SDS011;8231;50.866;7.944;2022-07-06T00:43:47;3.25;;;2.22;;
16246;SDS011;8231;50.866;7.944;2022-07-06T00:46:16;5.60;;;2.42;;
16246;SDS011;8231;50.866;7.944;2022-07-06T00:48:45;3.47;;;2.25;;
16246;SDS011;8231;50.866;7.944;2022-07-06T00:51:13;3.72;;;2.20;;
16246;SDS011;8231;50.866;7.944;2022-07-06T00:53:42;2.83;;;1.92;;
16246;SDS011;8231;50.866;7.944;2022-07-06T00:56:12;3.40;;;1.98;;
16246;SDS011;8231;50.866;7.944;2022-07-06T00:58:40;3.78;;;1.95;;
16246;SDS011;8231;50.866;7.944;2022-07-06T01:01:10;2.97;;;2.08;;
16246;SDS011;8231;50.866;7.944;2022-07-06T01:03:38;3.90;;;2.20;;
16246;SDS011;8231;50.866;7.944;2022-07-06T01:06:06;3.45;;;2.15;;
16246;SDS011;8231;50.866;7.944;2022-07-06T01:08:34;6.82;;;4.45;;
16246;SDS011;8231;50.866;7.944;2022-07-06T01:11:02;3.22;;;2.10;;
16246;SDS011;8231;50.866;7.944;2022-07-06T01:13:31;2.63;;;2.13;;
16246;SDS011;8231;50.866;7.944;2022-07-06T01:16:00;2.88;;;2.30;;
16246;SDS011;8231;50.866;7.944;2022-07-06T01:18:30;3.97;;;2.20;;
16246;SDS011;8231;50.866;7.944;2022-07-06T01:21:09;3.65;;;2.30;;
16246;SDS011;8231;50.866;7.944;2022-07-06T01:23:39;2.70;;;2.30;;
16246;SDS011;8231;50.866;7.944;2022-07-06T01:26:09;2.95;;;2.40;;
16246;SDS011;8231;50.866;7.944;2022-07-06T01:28:39;4.20;;;2.38;;
16246;SDS011;8231;50.866;7.944;2022-07-06T01:31:13;5.75;;;2.22;;
16246;SDS011;8231;50.866;7.944;2022-07-06T01:33:42;3.30;;;2.25;;
16246;SDS011;8231;50.866;7.944;2022-07-06T01:36:12;4.45;;;2.38;;
16246;SDS011;8231;50.866;7.944;2022-07-06T01:38:47;2.50;;;2.17;;
16246;SDS011;8231;50.866;7.944;2022-07-06T01:41:16;6.05;;;2.58;;
16246;SDS011;8231;50.866;7.944;2022-07-06T01:43:44;2.45;;;2.25;;
16246;SDS011;8231;50.866;7.944;2022-07-06T01:46:14;3.10;;;2.65;;
16246;SDS011;8231;50.866;7.944;2022-07-06T01:48:42;3.47;;;2.55;;
16246;SDS011;8231;50.866;7.944;2022-07-06T01:51:10;2.83;;;2.50;;
16246;SDS011;8231;50.866;7.944;2022-07-06T01:53:41;2.90;;;2.70;;
16246;SDS011;8231;50.866;7.944;2022-07-06T01:56:10;3.10;;;2.63;;
16246;SDS011;8231;50.866;7.944;2022-07-06T01:58:39;3.95;;;2.83;;
16246;SDS011;8231;50.866;7.944;2022-07-06T02:01:08;4.07;;;2.20;;
16246;SDS011;8231;50.866;7.944;2022-07-06T02:03:38;2.47;;;2.20;;
16246;SDS011;8231;50.866;7.944;2022-07-06T02:06:07;3.03;;;2.72;;
16246;SDS011;8231;50.866;7.944;2022-07-06T02:08:36;4.72;;;2.65;;
16246;SDS011;8231;50.866;7.944;2022-07-06T02:11:07;5.85;;;3.33;;
16246;SDS011;8231;50.866;7.944;2022-07-06T02:13:38;4.95;;;3.35;;
16246;SDS011;8231;50.866;7.944;2022-07-06T02:16:10;4.88;;;4.43;;
16246;SDS011;8231;50.866;7.944;2022-07-06T02:18:38;4.32;;;3.22;;
16246;SDS011;8231;50.866;7.944;2022-07-06T02:21:06;5.25;;;2.85;;
16246;SDS011;8231;50.866;7.944;2022-07-06T02:23:35;3.70;;;3.15;;
16246;SDS011;8231;50.866;7.944;2022-07-06T02:26:03;4.25;;;3.38;;
16246;SDS011;8231;50.866;7.944;2022-07-06T02:28:32;4.85;;;3.13;;
16246;SDS011;8231;50.866;7.944;2022-07-06T02:31:02;3.65;;;3.30;;
16246;SDS011;8231;50.866;7.944;2022-07-06T02:33:30;3.30;;;2.78;;
16246;SDS011;8231;50.866;7.944;2022-07-06T02:35:58;5.75;;;2.75;;
16246;SDS011;8231;50.866;7.944;2022-07-06T02:38:27;4.93;;;3.17;;
16246;SDS011;8231;50.866;7.944;2022-07-06T02:40:56;5.32;;;3.63;;
16246;SDS011;8231;50.866;7.944;2022-07-06T02:43:25;3.33;;;3.03;;
16246;SDS011;8231;50.866;7.944;2022-07-06T02:45:54;2.92;;;2.70;;
16246;SDS011;8231;50.866;7.944;2022-07-06T02:48:23;4.38;;;3.47;;
16246;SDS011;8231;50.866;7.944;2022-07-06T02:50:52;6.38;;;3.58;;
16246;SDS011;8231;50.866;7.944;2022-07-06T02:53:20;5.45;;;3.42;;
16246;SDS011;8231;50.866;7.944;2022-07-06T02:55:51;3.13;;;2.75;;
16246;SDS011;8231;50.866;7.944;2022-07-06T02:58:20;3.33;;;2.85;;
16246;SDS011;8231;50.866;7.944;2022-07-06T03:00:48;4.13;;;3.72;;
16246;SDS011;8231;50.866;7.944;2022-07-06T03:03:18;4.80;;;3.15;;
16246;SDS011;8231;50.866;7.944;2022-07-06T03:05:46;4.30;;;2.97;;
16246;SDS011;8231;50.866;7.944;2022-07-06T03:08:17;6.20;;;3.72;;
16246;SDS011;8231;50.866;7.944;2022-07-06T03:10:45;4.72;;;3.05;;
16246;SDS011;8231;50.866;7.944;2022-07-06T03:13:14;3.05;;;2.72;;
16246;SDS011;8231;50.866;7.944;2022-07-06T03:15:43;3.22;;;2.90;;
16246;SDS011;8231;50.866;7.944;2022-07-06T03:18:11;6.10;;;3.10;;
16246;SDS011;8231;50.866;7.944;2022-07-06T03:20:41;5.22;;;3.70;;
16246;SDS011;8231;50.866;7.944;2022-07-06T03:23:11;3.65;;;3.20;;
16246;SDS011;8231;50.866;7.944;2022-07-06T03:25:40;3.92;;;3.60;;
16246;SDS011;8231;50.866;7.944;2022-07-06T03:28:08;4.70;;;3.80;;
16246;SDS011;8231;50.866;7.944;2022-07-06T03:30:37;5.82;;;4.78;;
16246;SDS011;8231;50.866;7.944;2022-07-06T03:33:05;5.90;;;4.47;;
16246;SDS011;8231;50.866;7.944;2022-07-06T03:35:34;5.03;;;4.63;;
16246;SDS011;8231;50.866;7.944;2022-07-06T03:38:06;9.60;;;4.80;;
16246;SDS011;8231;50.866;7.944;2022-07-06T03:40:34;4.22;;;3.83;;
16246;SDS011;8231;50.866;7.944;2022-07-06T03:43:02;5.03;;;3.90;;
16246;SDS011;8231;50.866;7.944;2022-07-06T03:45:34;6.60;;;3.92;;
16246;SDS011;8231;50.866;7.944;2022-07-06T03:48:04;5.78;;;4.30;;
16246;SDS011;8231;50.866;7.944;2022-07-06T03:50:35;6.45;;;3.88;;
16246;SDS011;8231;50.866;7.944;2022-07-06T03:53:03;6.43;;;5.05;;
16246;SDS011;8231;50.866;7.944;2022-07-06T03:55:33;7.28;;;4.90;;
16246;SDS011;8231;50.866;7.944;2022-07-06T03:58:05;9.85;;;5.47;;
16246;SDS011;8231;50.866;7.944;2022-07-06T04:00:36;7.50;;;5.55;;
16246;SDS011;8231;50.866;7.944;2022-07-06T04:03:09;6.35;;;5.40;;
16246;SDS011;8231;50.866;7.944;2022-07-06T04:05:45;5.05;;;4.53;;
16246;SDS011;8231;50.866;7.944;2022-07-06T04:08:15;6.13;;;5.53;;
16246;SDS011;8231;50.866;7.944;2022-07-06T04:10:49;8.52;;;6.32;;
16246;SDS011;8231;50.866;7.944;2022-07-06T04:13:17;7.13;;;6.32;;
16246;SDS011;8231;50.866;7.944;2022-07-06T04:15:45;7.03;;;5.28;;
16246;SDS011;8231;50.866;7.944;2022-07-06T04:18:14;6.40;;;5.38;;
16246;SDS011;8231;50.866;7.944;2022-07-06T04:20:50;7.95;;;5.05;;
16246;SDS011;8231;50.866;7.944;2022-07-06T04:23:20;5.15;;;4.47;;
16246;SDS011;8231;50.866;7.944;2022-07-06T04:25:49;8.13;;;5.22;;
16246;SDS011;8231;50.866;7.944;2022-07-06T04:28:18;7.22;;;5.82;;
16246;SDS011;8231;50.866;7.944;2022-07-06T04:30:47;8.82;;;5.93;;
16246;SDS011;8231;50.866;7.944;2022-07-06T04:33:18;6.43;;;5.78;;
16246;SDS011;8231;50.866;7.944;2022-07-06T04:35:48;4.53;;;4.13;;
16246;SDS011;8231;50.866;7.944;2022-07-06T04:38:18;12.43;;;5.30;;
16246;SDS011;8231;50.866;7.944;2022-07-06T04:40:50;7.68;;;5.63;;
16246;SDS011;8231;50.866;7.944;2022-07-06T04:43:19;9.45;;;6.03;;
16246;SDS011;8231;50.866;7.944;2022-07-06T04:45:48;8.70;;;5.15;;
16246;SDS011;8231;50.866;7.944;2022-07-06T04:48:16;8.05;;;4.60;;
16246;SDS011;8231;50.866;7.944;2022-07-06T04:50:44;8.85;;;4.80;;
16246;SDS011;8231;50.866;7.944;2022-07-06T04:53:20;5.60;;;4.03;;
16246;SDS011;8231;50.866;7.944;2022-07-06T04:55:49;4.43;;;3.95;;
16246;SDS011;8231;50.866;7.944;2022-07-06T04:58:18;6.32;;;4.30;;
16246;SDS011;8231;50.866;7.944;2022-07-06T05:00:48;4.78;;;4.38;;
16246;SDS011;8231;50.866;7.944;2022-07-06T05:03:16;6.80;;;3.60;;
16246;SDS011;8231;50.866;7.944;2022-07-06T05:05:44;7.20;;;4.10;;
16246;SDS011;8231;50.866;7.944;2022-07-06T05:08:12;3.90;;;3.60;;
16246;SDS011;8231;50.866;7.944;2022-07-06T05:10:42;5.43;;;3.95;;
16246;SDS011;8231;50.866;7.944;2022-07-06T05:13:10;3.60;;;3.30;;
16246;SDS011;8231;50.866;7.944;2022-07-06T05:15:39;6.65;;;3.80;;
16246;SDS011;8231;50.866;7.944;2022-07-06T05:18:07;8.07;;;3.50;;
16246;SDS011;8231;50.866;7.944;2022-07-06T05:20:35;4.80;;;3.83;;
16246;SDS011;8231;50.866;7.944;2022-07-06T05:23:04;6.47;;;4.07;;
16246;SDS011;8231;50.866;7.944;2022-07-06T05:25:32;4.70;;;3.95;;
16246;SDS011;8231;50.866;7.944;2022-07-06T05:28:02;6.05;;;3.80;;
16246;SDS011;8231;50.866;7.944;2022-07-06T05:30:31;4.28;;;3.67;;
16246;SDS011;8231;50.866;7.944;2022-07-06T05:32:59;6.03;;;3.88;;
16246;SDS011;8231;50.866;7.944;2022-07-06T05:35:28;5.57;;;4.15;;
16246;SDS011;8231;50.866;7.944;2022-07-06T05:38:17;5.05;;;3.78;;
16246;SDS011;8231;50.866;7.944;2022-07-06T05:40:46;4.15;;;3.78;;
16246;SDS011;8231;50.866;7.944;2022-07-06T05:43:16;4.38;;;3.60;;
16246;SDS011;8231;50.866;7.944;2022-07-06T05:45:45;5.15;;;3.75;;
16246;SDS011;8231;50.866;7.944;2022-07-06T05:48:16;5.30;;;3.50;;
16246;SDS011;8231;50.866;7.944;2022-07-06T05:51:02;4.35;;;3.65;;
16246;SDS011;8231;50.866;7.944;2022-07-06T05:53:31;7.32;;;3.85;;
16246;SDS011;8231;50.866;7.944;2022-07-06T05:55:59;4.43;;;3.10;;
16246;SDS011;8231;50.866;7.944;2022-07-06T05:58:31;4.18;;;3.45;;
16246;SDS011;8231;50.866;7.944;2022-07-06T06:01:00;3.78;;;3.22;;
16246;SDS011;8231;50.866;7.944;2022-07-06T06:03:29;3.85;;;2.78;;
16246;SDS011;8231;50.866;7.944;2022-07-06T06:05:57;4.20;;;3.00;;
16246;SDS011;8231;50.866;7.944;2022-07-06T06:08:26;5.47;;;2.60;;
16246;SDS011;8231;50.866;7.944;2022-07-06T06:10:55;4.57;;;2.97;;
16246;SDS011;8231;50.866;7.944;2022-07-06T06:13:25;5.28;;;2.60;;
16246;SDS011;8231;50.866;7.944;2022-07-06T06:15:54;4.68;;;2.90;;
16246;SDS011;8231;50.866;7.944;2022-07-06T06:18:23;3.13;;;2.60;;
16246;SDS011;8231;50.866;7.944;2022-07-06T06:20:51;4.75;;;2.53;;
16246;SDS011;8231;50.866;7.944;2022-07-06T06:23:20;4.13;;;2.33;;
16246;SDS011;8231;50.866;7.944;2022-07-06T06:25:48;4.07;;;2.20;;
16246;SDS011;8231;50.866;7.944;2022-07-06T06:28:16;3.63;;;2.17;;
16246;SDS011;8231;50.866;7.944;2022-07-06T06:30:44;3.42;;;2.58;;
16246;SDS011;8231;50.866;7.944;2022-07-06T06:33:14;5.50;;;3.22;;
16246;SDS011;8231;50.866;7.944;2022-07-06T06:35:44;6.22;;;3.00;;
16246;SDS011;8231;50.866;7.944;2022-07-06T06:38:13;5.00;;;2.38;;
16246;SDS011;8231;50.866;7.944;2022-07-06T06:40:42;3.00;;;2.40;;
16246;SDS011;8231;50.866;7.944;2022-07-06T06:43:10;4.65;;;2.33;;
16246;SDS011;8231;50.866;7.944;2022-07-06T06:45:55;4.70;;;2.40;;
16246;SDS011;8231;50.866;7.944;2022-07-06T06:48:24;3.28;;;2.13;;
16246;SDS011;8231;50.866;7.944;2022-07-06T06:50:52;6.63;;;2.42;;
16246;SDS011;8231;50.866;7.944;2022-07-06T06:53:20;6.18;;;2.47;;
16246;SDS011;8231;50.866;7.944;2022-07-06T06:55:48;2.63;;;2.33;;
16246;SDS011;8231;50.866;7.944;2022-07-06T06:58:17;3.53;;;2.28;;
16246;SDS011;8231;50.866;7.944;2022-07-06T07:00:45;3.33;;;2.28;;
16246;SDS011;8231;50.866;7.944;2022-07-06T07:03:13;3.72;;;2.00;;
16246;SDS011;8231;50.866;7.944;2022-07-06T07:05:43;3.72;;;1.65;;
16246;SDS011;8231;50.866;7.944;2022-07-06T07:08:11;4.22;;;2.30;;
16246;SDS011;8231;50.866;7.944;2022-07-06T07:10:39;3.58;;;2.28;;
16246;SDS011;8231;50.866;7.944;2022-07-06T07:13:07;3.95;;;1.80;;
16246;SDS011;8231;50.866;7.944;2022-07-06T07:15:35;4.75;;;2.40;;
16246;SDS011;8231;50.866;7.944;2022-07-06T07:18:03;2.55;;;1.92;;
16246;SDS011;8231;50.866;7.944;2022-07-06T07:20:37;2.25;;;1.77;;
16246;SDS011;8231;50.866;7.944;2022-07-06T07:23:07;5.65;;;1.73;;
16246;SDS011;8231;50.866;7.944;2022-07-06T07:25:35;4.72;;;1.77;;
16246;SDS011;8231;50.866;7.944;2022-07-06T07:28:05;2.25;;;1.40;;
16246;SDS011;8231;50.866;7.944;2022-07-06T07:30:33;2.65;;;1.60;;
16246;SDS011;8231;50.866;7.944;2022-07-06T07:33:01;4.45;;;1.60;;
16246;SDS011;8231;50.866;7.944;2022-07-06T07:35:29;2.75;;;1.70;;
16246;SDS011;8231;50.866;7.944;2022-07-06T07:37:57;2.42;;;1.67;;
16246;SDS011;8231;50.866;7.944;2022-07-06T07:40:27;4.93;;;1.50;;
16246;SDS011;8231;50.866;7.944;2022-07-06T07:42:56;2.00;;;1.52;;
16246;SDS011;8231;50.866;7.944;2022-07-06T07:45:24;3.00;;;1.80;;
16246;SDS011;8231;50.866;7.944;2022-07-06T07:47:52;2.88;;;1.52;;
16246;SDS011;8231;50.866;7.944;2022-07-06T07:50:20;3.60;;;1.63;;
16246;SDS011;8231;50.866;7.944;2022-07-06T07:52:48;2.00;;;1.13;;
16246;SDS011;8231;50.866;7.944;2022-07-06T07:55:17;3.20;;;1.50;;
16246;SDS011;8231;50.866;7.944;2022-07-06T07:58:06;3.00;;;1.52;;
16246;SDS011;8231;50.866;7.944;2022-07-06T08:00:35;1.60;;;1.15;;
16246;SDS011;8231;50.866;7.944;2022-07-06T08:03:03;2.08;;;1.52;;
16246;SDS011;8231;50.866;7.944;2022-07-06T08:05:31;2.00;;;1.10;;
16246;SDS011;8231;50.866;7.944;2022-07-06T08:07:59;3.35;;;1.58;;
16246;SDS011;8231;50.866;7.944;2022-07-06T08:10:28;1.70;;;1.20;;
16246;SDS011;8231;50.866;7.944;2022-07-06T08:13:13;3.85;;;1.67;;
16246;SDS011;8231;50.866;7.944;2022-07-06T08:15:42;5.35;;;1.23;;
16246;SDS011;8231;50.866;7.944;2022-07-06T08:18:10;2.08;;;1.30;;
16246;SDS011;8231;50.866;7.944;2022-07-06T08:20:38;2.88;;;1.55;;
16246;SDS011;8231;50.866;7.944;2022-07-06T08:23:23;1.50;;;1.13;;
16246;SDS011;8231;50.866;7.944;2022-07-06T08:25:53;2.10;;;1.25;;
16246;SDS011;8231;50.866;7.944;2022-07-06T08:28:22;3.83;;;1.38;;
16246;SDS011;8231;50.866;7.944;2022-07-06T08:30:51;4.85;;;1.45;;
16246;SDS011;8231;50.866;7.944;2022-07-06T08:33:20;7.13;;;1.58;;
16246;SDS011;8231;50.866;7.944;2022-07-06T08:35:49;1.83;;;1.30;;
16246;SDS011;8231;50.866;7.944;2022-07-06T08:38:17;2.53;;;1.23;;
16246;SDS011;8231;50.866;7.944;2022-07-06T08:40:46;2.60;;;1.40;;
16246;SDS011;8231;50.866;7.944;2022-07-06T08:43:15;3.88;;;1.98;;
16246;SDS011;8231;50.866;7.944;2022-07-06T08:45:45;3.53;;;1.50;;
16246;SDS011;8231;50.866;7.944;2022-07-06T08:48:15;2.75;;;1.40;;
16246;SDS011;8231;50.866;7.944;2022-07-06T08:50:45;5.15;;;2.03;;
16246;SDS011;8231;50.866;7.944;2022-07-06T08:53:13;2.25;;;1.25;;
16246;SDS011;8231;50.866;7.944;2022-07-06T08:55:41;3.53;;;1.52;;
16246;SDS011;8231;50.866;7.944;2022-07-06T08:58:10;2.00;;;1.45;;
16246;SDS011;8231;50.866;7.944;2022-07-06T09:00:39;3.55;;;1.52;;
16246;SDS011;8231;50.866;7.944;2022-07-06T09:03:11;4.05;;;1.67;;
16246;SDS011;8231;50.866;7.944;2022-07-06T09:05:40;5.47;;;1.42;;
16246;SDS011;8231;50.866;7.944;2022-07-06T09:08:15;1.83;;;1.45;;
16246;SDS011;8231;50.866;7.944;2022-07-06T09:10:43;2.78;;;1.23;;
16246;SDS011;8231;50.866;7.944;2022-07-06T09:13:11;2.08;;;1.83;;
16246;SDS011;8231;50.866;7.944;2022-07-06T09:15:39;3.03;;;1.67;;
16246;SDS011;8231;50.866;7.944;2022-07-06T09:18:07;4.20;;;2.10;;
16246;SDS011;8231;50.866;7.944;2022-07-06T09:20:37;4.03;;;1.65;;
16246;SDS011;8231;50.866;7.944;2022-07-06T09:23:07;6.53;;;2.20;;
16246;SDS011;8231;50.866;7.944;2022-07-06T09:25:49;1.92;;;1.70;;
16246;SDS011;8231;50.866;7.944;2022-07-06T09:28:18;1.65;;;1.52;;
16246;SDS011;8231;50.866;7.944;2022-07-06T09:30:46;2.08;;;1.08;;
16246;SDS011;8231;50.866;7.944;2022-07-06T09:33:16;1.08;;;0.98;;
16246;SDS011;8231;50.866;7.944;2022-07-06T09:35:46;3.08;;;1.35;;
16246;SDS011;8231;50.866;7.944;2022-07-06T09:38:15;2.67;;;1.40;;
16246;SDS011;8231;50.866;7.944;2022-07-06T09:40:44;2.53;;;1.23;;
16246;SDS011;8231;50.866;7.944;2022-07-06T09:43:13;2.55;;;1.40;;
16246;SDS011;8231;50.866;7.944;2022-07-06T09:45:43;2.53;;;1.13;;
16246;SDS011;8231;50.866;7.944;2022-07-06T09:48:12;1.15;;;1.00;;
16246;SDS011;8231;50.866;7.944;2022-07-06T09:50:42;2.17;;;1.20;;
16246;SDS011;8231;50.866;7.944;2022-07-06T09:53:13;3.03;;;1.95;;
16246;SDS011;8231;50.866;7.944;2022-07-06T09:55:44;2.33;;;1.30;;
16246;SDS011;8231;50.866;7.944;2022-07-06T09:58:13;2.08;;;1.35;;
16246;SDS011;8231;50.866;7.944;2022-07-06T10:00:42;2.25;;;1.20;;
16246;SDS011;8231;50.866;7.944;2022-07-06T10:03:11;1.77;;;1.30;;
16246;SDS011;8231;50.866;7.944;2022-07-06T10:05:41;2.83;;;1.45;;
16246;SDS011;8231;50.866;7.944;2022-07-06T10:08:14;1.35;;;1.15;;
16246;SDS011;8231;50.866;7.944;2022-07-06T10:10:43;2.38;;;1.48;;
16246;SDS011;8231;50.866;7.944;2022-07-06T10:13:12;2.25;;;1.58;;
16246;SDS011;8231;50.866;7.944;2022-07-06T10:15:47;3.67;;;1.55;;
16246;SDS011;8231;50.866;7.944;2022-07-06T10:18:15;1.58;;;1.23;;
16246;SDS011;8231;50.866;7.944;2022-07-06T10:20:43;1.45;;;1.35;;
16246;SDS011;8231;50.866;7.944;2022-07-06T10:23:13;2.15;;;1.55;;
16246;SDS011;8231;50.866;7.944;2022-07-06T10:25:42;3.67;;;1.70;;
16246;SDS011;8231;50.866;7.944;2022-07-06T10:28:12;2.72;;;1.63;;
16246;SDS011;8231;50.866;7.944;2022-07-06T10:30:41;2.40;;;1.67;;
16246;SDS011;8231;50.866;7.944;2022-07-06T10:33:10;1.90;;;1.40;;
16246;SDS011;8231;50.866;7.944;2022-07-06T10:35:41;2.20;;;1.42;;
16246;SDS011;8231;50.866;7.944;2022-07-06T10:38:11;4.90;;;1.45;;
16246;SDS011;8231;50.866;7.944;2022-07-06T10:40:40;2.28;;;1.23;;
16246;SDS011;8231;50.866;7.944;2022-07-06T10:43:31;2.88;;;1.20;;
16246;SDS011;8231;50.866;7.944;2022-07-06T10:46:10;2.63;;;1.20;;
16246;SDS011;8231;50.866;7.944;2022-07-06T10:48:40;2.40;;;1.13;;
16246;SDS011;8231;50.866;7.944;2022-07-06T10:51:10;1.80;;;1.10;;
16246;SDS011;8231;50.866;7.944;2022-07-06T10:53:40;3.20;;;1.38;;
16246;SDS011;8231;50.866;7.944;2022-07-06T10:56:12;3.38;;;1.45;;
16246;SDS011;8231;50.866;7.944;2022-07-06T10:58:41;3.55;;;1.63;;
16246;SDS011;8231;50.866;7.944;2022-07-06T11:01:17;3.33;;;1.30;;
16246;SDS011;8231;50.866;7.944;2022-07-06T11:03:47;3.33;;;1.40;;
16246;SDS011;8231;50.866;7.944;2022-07-06T11:06:17;6.43;;;1.45;;
16246;SDS011;8231;50.866;7.944;2022-07-06T11:08:48;5.07;;;1.33;;
16246;SDS011;8231;50.866;7.944;2022-07-06T11:11:22;2.13;;;1.00;;
16246;SDS011;8231;50.866;7.944;2022-07-06T11:13:55;1.85;;;1.00;;
16246;SDS011;8231;50.866;7.944;2022-07-06T11:16:28;2.97;;;1.00;;
16246;SDS011;8231;50.866;7.944;2022-07-06T11:19:05;2.40;;;1.55;;
16246;SDS011;8231;50.866;7.944;2022-07-06T11:24:25;2.10;;;1.05;;
16246;SDS011;8231;50.866;7.944;2022-07-06T11:26:56;3.78;;;1.27;;
16246;SDS011;8231;50.866;7.944;2022-07-06T11:29:26;1.27;;;1.13;;
16246;SDS011;8231;50.866;7.944;2022-07-06T11:31:57;3.65;;;1.45;;
16246;SDS011;8231;50.866;7.944;2022-07-06T11:34:28;4.13;;;1.42;;
16246;SDS011;8231;50.866;7.944;2022-07-06T11:36:57;4.00;;;1.38;;
16246;SDS011;8231;50.866;7.944;2022-07-06T11:39:27;3.47;;;1.20;;
16246;SDS011;8231;50.866;7.944;2022-07-06T11:41:57;3.30;;;1.27;;
16246;SDS011;8231;50.866;7.944;2022-07-06T11:44:27;2.40;;;1.20;;
16246;SDS011;8231;50.866;7.944;2022-07-06T11:46:55;2.92;;;1.10;;
16246;SDS011;8231;50.866;7.944;2022-07-06T11:49:27;1.45;;;1.15;;
16246;SDS011;8231;50.866;7.944;2022-07-06T11:51:56;1.48;;;1.10;;
16246;SDS011;8231;50.866;7.944;2022-07-06T11:54:24;2.08;;;1.15;;
16246;SDS011;8231;50.866;7.944;2022-07-06T11:56:54;4.00;;;1.23;;
16246;SDS011;8231;50.866;7.944;2022-07-06T11:59:25;2.35;;;1.10;;
16246;SDS011;8231;50.866;7.944;2022-07-06T12:01:58;2.42;;;1.60;;
16246;SDS011;8231;50.866;7.944;2022-07-06T12:04:27;2.05;;;1.00;;
16246;SDS011;8231;50.866;7.944;2022-07-06T12:06:59;2.65;;;1.10;;
16246;SDS011;8231;50.866;7.944;2022-07-06T12:09:29;1.77;;;1.27;;
16246;SDS011;8231;50.866;7.944;2022-07-06T12:11:59;2.95;;;1.15;;
16246;SDS011;8231;50.866;7.944;2022-07-06T12:14:29;2.95;;;2.10;;
16246;SDS011;8231;50.866;7.944;2022-07-06T12:17:02;3.00;;;1.40;;
16246;SDS011;8231;50.866;7.944;2022-07-06T12:19:31;3.25;;;1.33;;
16246;SDS011;8231;50.866;7.944;2022-07-06T12:21:59;1.52;;;1.20;;
16246;SDS011;8231;50.866;7.944;2022-07-06T12:24:29;2.92;;;1.23;;
16246;SDS011;8231;50.866;7.944;2022-07-06T12:27:09;2.72;;;1.15;;
16246;SDS011;8231;50.866;7.944;2022-07-06T12:29:38;2.08;;;1.58;;
16246;SDS011;8231;50.866;7.944;2022-07-06T12:32:13;9.35;;;1.55;;
16246;SDS011;8231;50.866;7.944;2022-07-06T12:34:42;3.42;;;1.20;;
16246;SDS011;8231;50.866;7.944;2022-07-06T12:37:11;2.00;;;1.20;;
16246;SDS011;8231;50.866;7.944;2022-07-06T12:39:40;3.08;;;1.70;;
16246;SDS011;8231;50.866;7.944;2022-07-06T12:42:12;3.10;;;1.65;;
16246;SDS011;8231;50.866;7.944;2022-07-06T12:44:46;2.05;;;1.40;;
16246;SDS011;8231;50.866;7.944;2022-07-06T12:47:16;1.77;;;1.52;;
16246;SDS011;8231;50.866;7.944;2022-07-06T12:49:47;3.25;;;1.48;;
16246;SDS011;8231;50.866;7.944;2022-07-06T12:52:16;5.53;;;1.52;;
16246;SDS011;8231;50.866;7.944;2022-07-06T12:54:44;2.15;;;1.48;;
16246;SDS011;8231;50.866;7.944;2022-07-06T12:57:16;2.33;;;1.80;;
16246;SDS011;8231;50.866;7.944;2022-07-06T12:59:46;2.13;;;1.60;;
16246;SDS011;8231;50.866;7.944;2022-07-06T13:02:20;3.85;;;2.05;;
16246;SDS011;8231;50.866;7.944;2022-07-06T13:05:10;2.75;;;2.05;;
16246;SDS011;8231;50.866;7.944;2022-07-06T13:07:43;3.13;;;1.90;;
16246;SDS011;8231;50.866;7.944;2022-07-06T13:10:13;3.03;;;1.95;;
16246;SDS011;8231;50.866;7.944;2022-07-06T13:12:43;4.20;;;1.92;;
16246;SDS011;8231;50.866;7.944;2022-07-06T13:15:12;2.13;;;1.85;;
16246;SDS011;8231;50.866;7.944;2022-07-06T13:17:40;2.10;;;1.90;;
16246;SDS011;8231;50.866;7.944;2022-07-06T13:20:10;2.53;;;1.83;;
16246;SDS011;8231;50.866;7.944;2022-07-06T13:22:39;4.25;;;2.08;;
16246;SDS011;8231;50.866;7.944;2022-07-06T13:25:07;2.42;;;2.22;;
16246;SDS011;8231;50.866;7.944;2022-07-06T13:27:35;5.43;;;2.47;;
16246;SDS011;8231;50.866;7.944;2022-07-06T13:30:05;1.50;;;1.40;;
16246;SDS011;8231;50.866;7.944;2022-07-06T13:32:34;1.95;;;1.77;;
16246;SDS011;8231;50.866;7.944;2022-07-06T13:35:02;3.03;;;1.40;;
16246;SDS011;8231;50.866;7.944;2022-07-06T13:37:31;1.30;;;1.20;;
16246;SDS011;8231;50.866;7.944;2022-07-06T13:39:59;2.78;;;1.63;;
16246;SDS011;8231;50.866;7.944;2022-07-06T13:42:27;1.83;;;1.50;;
16246;SDS011;8231;50.866;7.944;2022-07-06T13:44:56;3.75;;;1.50;;
16246;SDS011;8231;50.866;7.944;2022-07-06T13:47:26;1.92;;;1.45;;
16246;SDS011;8231;50.866;7.944;2022-07-06T13:49:54;1.83;;;1.38;;
16246;SDS011;8231;50.866;7.944;2022-07-06T13:52:22;6.57;;;1.92;;
16246;SDS011;8231;50.866;7.944;2022-07-06T13:54:50;2.47;;;1.63;;
16246;SDS011;8231;50.866;7.944;2022-07-06T13:57:26;2.67;;;1.70;;
16246;SDS011;8231;50.866;7.944;2022-07-06T13:59:54;1.90;;;1.60;;
16246;SDS011;8231;50.866;7.944;2022-07-06T14:02:23;5.45;;;2.03;;
16246;SDS011;8231;50.866;7.944;2022-07-06T14:04:52;3.13;;;1.85;;
16246;SDS011;8231;50.866;7.944;2022-07-06T14:07:20;2.85;;;1.60;;
16246;SDS011;8231;50.866;7.944;2022-07-06T14:09:48;1.70;;;1.60;;
16246;SDS011;8231;50.866;7.944;2022-07-06T14:12:18;1.30;;;1.20;;
16246;SDS011;8231;50.866;7.944;2022-07-06T14:14:48;1.60;;;1.40;;
16246;SDS011;8231;50.866;7.944;2022-07-06T14:17:16;2.78;;;1.65;;
16246;SDS011;8231;50.866;7.944;2022-07-06T14:19:44;2.97;;;1.40;;
16246;SDS011;8231;50.866;7.944;2022-07-06T14:22:14;1.70;;;1.35;;
16246;SDS011;8231;50.866;7.944;2022-07-06T14:24:42;4.47;;;1.30;;
16246;SDS011;8231;50.866;7.944;2022-07-06T14:27:10;1.85;;;1.50;;
16246;SDS011;8231;50.866;7.944;2022-07-06T14:29:38;1.58;;;1.10;;
16246;SDS011;8231;50.866;7.944;2022-07-06T14:32:06;2.58;;;1.40;;
16246;SDS011;8231;50.866;7.944;2022-07-06T14:34:35;2.13;;;1.30;;
16246;SDS011;8231;50.866;7.944;2022-07-06T14:37:03;3.15;;;1.45;;
16246;SDS011;8231;50.866;7.944;2022-07-06T14:39:33;1.30;;;1.20;;
16246;SDS011;8231;50.866;7.944;2022-07-06T14:42:02;2.17;;;1.60;;
16246;SDS011;8231;50.866;7.944;2022-07-06T14:44:30;2.10;;;1.35;;
16246;SDS011;8231;50.866;7.944;2022-07-06T14:46:59;2.40;;;1.27;;
16246;SDS011;8231;50.866;7.944;2022-07-06T14:49:27;2.65;;;1.65;;
16246;SDS011;8231;50.866;7.944;2022-07-06T14:51:55;2.15;;;1.05;;
16246;SDS011;8231;50.866;7.944;2022-07-06T14:54:23;2.28;;;1.20;;
16246;SDS011;8231;50.866;7.944;2022-07-06T14:56:53;2.55;;;1.20;;
16246;SDS011;8231;50.866;7.944;2022-07-06T14:59:21;3.15;;;1.60;;
16246;SDS011;8231;50.866;7.944;2022-07-06T15:01:51;2.88;;;1.30;;
16246;SDS011;8231;50.866;7.944;2022-07-06T15:04:20;4.03;;;1.42;;
16246;SDS011;8231;50.866;7.944;2022-07-06T15:06:49;1.85;;;1.40;;
16246;SDS011;8231;50.866;7.944;2022-07-06T15:09:21;1.77;;;1.45;;
16246;SDS011;8231;50.866;7.944;2022-07-06T15:11:49;1.98;;;1.27;;
16246;SDS011;8231;50.866;7.944;2022-07-06T15:14:19;7.38;;;1.40;;
16246;SDS011;8231;50.866;7.944;2022-07-06T15:16:47;2.47;;;1.85;;
16246;SDS011;8231;50.866;7.944;2022-07-06T15:19:16;2.25;;;1.35;;